createdAt,value
2018-05-26T00:01:25.580Z,11.60
2018-05-26T00:03:53.849Z,11.50
2018-05-26T00:06:22.132Z,11.87
2018-05-26T00:08:50.403Z,12.43
2018-05-26T00:11:18.688Z,11.47
2018-05-26T00:13:46.953Z,11.83
2018-05-26T00:16:14.476Z,11.87
2018-05-26T00:18:41.980Z,11.20
2018-05-26T00:21:10.273Z,11.57
2018-05-26T00:23:37.779Z,11.90
2018-05-26T00:26:05.277Z,12.00
2018-05-26T00:28:33.566Z,11.27
2018-05-26T00:31:01.065Z,11.60
2018-05-26T00:33:28.584Z,11.80
2018-05-26T00:35:56.084Z,12.43
2018-05-26T00:38:23.604Z,11.93
2018-05-26T00:40:51.110Z,12.37
2018-05-26T00:43:18.637Z,12.73
2018-05-26T00:45:46.137Z,12.23
2018-05-26T00:48:13.636Z,12.30
2018-05-26T00:50:41.159Z,11.87
2018-05-26T00:53:08.661Z,13.07
2018-05-26T00:55:36.179Z,13.70
2018-05-26T00:58:03.676Z,13.37
2018-05-26T01:00:31.200Z,14.13
2018-05-26T01:02:58.701Z,12.07
2018-05-26T01:05:26.224Z,13.23
2018-05-26T01:07:54.497Z,13.80
2018-05-26T01:10:22.764Z,13.90
2018-05-26T01:12:50.290Z,11.47
2018-05-26T01:15:17.787Z,12.70
2018-05-26T01:17:45.316Z,12.87
2018-05-26T01:20:12.815Z,13.90
2018-05-26T01:22:41.095Z,14.37
2018-05-26T01:25:09.360Z,13.30
2018-05-26T01:27:37.628Z,13.50
2018-05-26T01:30:05.159Z,14.10
2018-05-26T01:32:32.664Z,12.73
2018-05-26T01:35:00.948Z,12.57
2018-05-26T01:37:29.212Z,13.43
2018-05-26T01:39:57.501Z,14.47
2018-05-26T01:42:25.003Z,14.43
2018-05-26T01:44:52.529Z,14.20
2018-05-26T01:47:20.032Z,13.80
2018-05-26T01:49:47.527Z,14.80
2018-05-26T01:52:15.811Z,14.83
2018-05-26T01:54:44.078Z,14.90
2018-05-26T01:57:12.372Z,14.93
2018-05-26T01:59:39.871Z,15.17
2018-05-26T02:02:07.395Z,15.10
2018-05-26T02:04:34.901Z,14.47
2018-05-26T02:07:02.408Z,14.67
2018-05-26T02:09:29.928Z,16.17
2018-05-26T02:11:57.433Z,16.00
2018-05-26T02:14:24.952Z,15.93
2018-05-26T02:16:56.491Z,16.40
2018-05-26T02:19:24.012Z,16.43
2018-05-26T02:21:51.512Z,16.50
2018-05-26T02:24:19.008Z,15.93
2018-05-26T02:26:46.524Z,15.50
2018-05-26T02:29:14.020Z,16.13
2018-05-26T02:31:42.308Z,16.63
2018-05-26T02:34:09.823Z,16.77
2018-05-26T02:36:37.352Z,15.87
2018-05-26T02:39:05.644Z,17.20
2018-05-26T02:41:33.141Z,17.07
2018-05-26T02:44:01.431Z,16.90
2018-05-26T02:46:28.940Z,17.93
2018-05-26T02:48:56.456Z,18.07
2018-05-26T02:51:23.964Z,16.73
2018-05-26T02:53:51.484Z,17.40
2018-05-26T02:56:18.995Z,16.63
2018-05-26T02:58:46.519Z,18.57
2018-05-26T03:01:14.012Z,17.03
2018-05-26T03:03:42.309Z,17.10
2018-05-26T03:06:16.404Z,17.50
2018-05-26T03:08:50.444Z,24.20
2018-05-26T03:11:23.712Z,39.87
2018-05-26T03:13:56.824Z,18.20
2018-05-26T03:16:35.155Z,17.97
2018-05-26T03:19:02.680Z,18.57
2018-05-26T03:21:30.949Z,18.60
2018-05-26T03:23:58.448Z,18.27
2018-05-26T03:26:25.967Z,18.47
2018-05-26T03:28:53.468Z,19.50
2018-05-26T03:31:20.984Z,20.20
2018-05-26T03:33:48.488Z,20.07
2018-05-26T03:36:15.994Z,21.17
2018-05-26T03:38:43.528Z,20.43
2018-05-26T03:41:11.032Z,19.93
2018-05-26T03:43:38.564Z,21.23
2018-05-26T03:46:06.060Z,20.87
2018-05-26T03:48:33.580Z,20.60
2018-05-26T03:51:01.081Z,21.03
2018-05-26T03:53:28.604Z,21.40
2018-05-26T03:56:07.932Z,21.80
2018-05-26T03:58:47.368Z,21.00
2018-05-26T04:01:14.869Z,19.87
2018-05-26T04:03:42.372Z,21.13
2018-05-26T04:06:10.740Z,21.20
2018-05-26T04:08:38.248Z,20.77
2018-05-26T04:11:06.540Z,21.13
2018-05-26T04:13:34.040Z,20.13
2018-05-26T04:16:01.561Z,19.57
2018-05-26T04:18:29.056Z,21.47
2018-05-26T04:20:56.571Z,20.70
2018-05-26T04:23:24.836Z,20.57
2018-05-26T04:25:53.124Z,20.63
2018-05-26T04:28:20.619Z,20.30
2018-05-26T04:30:48.119Z,20.37
2018-05-26T04:33:15.643Z,21.00
2018-05-26T04:35:43.144Z,21.17
2018-05-26T04:38:11.428Z,21.23
2018-05-26T04:40:39.692Z,21.37
2018-05-26T04:43:07.984Z,20.80
2018-05-26T04:45:36.252Z,20.83
2018-05-26T04:48:04.542Z,20.77
2018-05-26T04:50:32.044Z,21.43
2018-05-26T04:52:59.539Z,19.10
2018-05-26T04:55:27.832Z,20.17
2018-05-26T04:57:56.095Z,19.50
2018-05-26T05:00:24.384Z,20.70
2018-05-26T05:02:52.648Z,20.80
2018-05-26T05:05:20.931Z,20.70
2018-05-26T05:07:49.196Z,20.33
2018-05-26T05:10:17.509Z,20.17
2018-05-26T05:12:45.008Z,19.47
2018-05-26T05:15:12.528Z,21.37
2018-05-26T05:17:40.032Z,20.40
2018-05-26T05:20:07.541Z,21.00
2018-05-26T05:22:35.148Z,20.40
2018-05-26T05:25:02.712Z,19.53
2018-05-26T05:27:30.192Z,20.10
2018-05-26T05:29:58.455Z,19.77
2018-05-26T05:32:25.984Z,20.20
2018-05-26T05:34:53.485Z,18.50
2018-05-26T05:37:21.776Z,17.67
2018-05-26T05:39:50.036Z,19.97
2018-05-26T05:42:18.300Z,19.33
2018-05-26T05:44:45.832Z,19.30
2018-05-26T05:47:14.096Z,19.73
2018-05-26T05:49:41.620Z,19.27
2018-05-26T05:52:09.888Z,18.80
2018-05-26T05:54:38.180Z,18.93
2018-05-26T05:57:05.684Z,19.23
2018-05-26T05:59:33.180Z,19.00
2018-05-26T06:02:01.465Z,18.50
2018-05-26T06:04:29.732Z,18.23
2018-05-26T06:06:58.020Z,17.80
2018-05-26T06:09:26.293Z,18.07
2018-05-26T06:11:54.580Z,17.90
2018-05-26T06:14:22.091Z,17.67
2018-05-26T06:16:50.378Z,16.90
2018-05-26T06:19:17.876Z,17.37
2018-05-26T06:21:45.376Z,16.20
2018-05-26T06:24:12.896Z,17.40
2018-05-26T06:26:40.392Z,15.70
2018-05-26T06:29:07.917Z,14.90
2018-05-26T06:31:35.416Z,14.40
2018-05-26T06:34:02.949Z,13.17
2018-05-26T06:36:30.444Z,14.67
2018-05-26T06:38:57.940Z,13.60
2018-05-26T06:41:25.469Z,13.50
2018-05-26T06:43:52.968Z,12.80
2018-05-26T06:46:20.484Z,12.73
2018-05-26T06:48:47.985Z,12.47
2018-05-26T06:51:15.518Z,12.33
2018-05-26T06:53:43.784Z,12.50
2018-05-26T06:56:11.305Z,12.23
2018-05-26T06:58:38.808Z,13.13
2018-05-26T07:01:07.085Z,12.53
2018-05-26T07:03:35.376Z,11.40
2018-05-26T07:06:02.880Z,11.07
2018-05-26T07:08:30.401Z,11.73
2018-05-26T07:10:57.896Z,11.17
2018-05-26T07:13:25.416Z,10.83
2018-05-26T07:15:52.917Z,10.80
2018-05-26T07:18:20.412Z,10.37
2018-05-26T07:20:48.691Z,9.93
2018-05-26T07:23:16.956Z,11.30
2018-05-26T07:25:44.482Z,9.30
2018-05-26T07:28:11.985Z,10.30
2018-05-26T07:30:40.276Z,10.63
2018-05-26T07:33:07.772Z,9.77
2018-05-26T07:35:35.267Z,9.13
2018-05-26T07:38:02.782Z,9.20
2018-05-26T07:40:30.275Z,9.87
2018-05-26T07:42:57.796Z,9.80
2018-05-26T07:45:25.300Z,10.87
2018-05-26T07:47:52.822Z,11.70
2018-05-26T07:50:20.321Z,10.30
2018-05-26T07:52:47.820Z,10.43
2018-05-26T07:55:15.379Z,10.20
2018-05-26T07:57:43.619Z,9.27
2018-05-26T08:00:11.929Z,10.27
2018-05-26T08:02:39.429Z,9.90
2018-05-26T08:05:06.956Z,10.17
2018-05-26T08:07:34.455Z,10.37
2018-05-26T08:10:01.948Z,9.40
2018-05-26T08:12:29.468Z,9.20
2018-05-26T08:14:56.972Z,10.83
2018-05-26T08:17:24.534Z,9.10
2018-05-26T08:19:52.776Z,7.80
2018-05-26T08:22:20.296Z,9.03
2018-05-26T08:24:47.792Z,8.43
2018-05-26T08:27:15.295Z,8.60
2018-05-26T08:29:42.826Z,8.10
2018-05-26T08:32:11.088Z,7.40
2018-05-26T08:34:38.604Z,7.93
2018-05-26T08:37:06.100Z,7.53
2018-05-26T08:39:33.616Z,8.90
2018-05-26T08:42:01.113Z,8.70
2018-05-26T08:44:28.632Z,9.97
2018-05-26T08:46:56.122Z,8.63
2018-05-26T08:49:23.625Z,9.10
2018-05-26T08:51:51.139Z,8.43
2018-05-26T08:54:18.628Z,8.70
2018-05-26T08:56:46.908Z,6.73
2018-05-26T08:59:15.164Z,6.23
2018-05-26T09:01:42.679Z,6.63
2018-05-26T09:04:10.172Z,6.30
2018-05-26T09:06:37.684Z,5.70
2018-05-26T09:09:05.176Z,5.63
2018-05-26T09:11:32.672Z,5.90
2018-05-26T09:14:00.952Z,6.00
2018-05-26T09:16:29.216Z,6.30
2018-05-26T09:18:57.500Z,6.10
2018-05-26T09:21:25.757Z,6.30
2018-05-26T09:23:54.052Z,5.40
2018-05-26T09:26:22.314Z,5.63
2018-05-26T09:28:49.808Z,5.13
2018-05-26T09:31:17.363Z,5.17
2018-05-26T09:33:44.857Z,5.00
2018-05-26T09:36:12.380Z,5.50
2018-05-26T09:38:39.876Z,5.40
2018-05-26T09:41:07.396Z,5.30
2018-05-26T09:43:34.894Z,5.20
2018-05-26T09:46:02.413Z,5.60
2018-05-26T09:48:29.916Z,5.13
2018-05-26T09:50:57.408Z,5.60
2018-05-26T09:53:25.688Z,5.37
2018-05-26T09:55:53.952Z,5.23
2018-05-26T09:58:21.464Z,4.90
2018-05-26T10:00:49.167Z,4.73
2018-05-26T10:03:16.695Z,5.23
2018-05-26T10:05:44.201Z,5.10
2018-05-26T10:08:12.456Z,4.70
2018-05-26T10:10:39.969Z,5.30
2018-05-26T10:13:07.469Z,5.07
2018-05-26T10:15:34.984Z,5.10
2018-05-26T10:18:02.481Z,4.57
2018-05-26T10:20:29.999Z,4.50
2018-05-26T10:22:57.503Z,4.87
2018-05-26T10:25:25.021Z,4.50
2018-05-26T10:27:52.519Z,3.87
2018-05-26T10:30:20.017Z,4.37
2018-05-26T10:32:47.578Z,4.53
2018-05-26T10:35:15.049Z,4.93
2018-05-26T10:37:42.571Z,4.90
2018-05-26T10:40:10.836Z,4.77
2018-05-26T10:42:38.351Z,4.80
2018-05-26T10:45:05.844Z,4.43
2018-05-26T10:47:33.361Z,4.10
2018-05-26T10:50:00.902Z,4.40
2018-05-26T10:52:28.372Z,4.70
2018-05-26T10:54:55.888Z,4.67
2018-05-26T10:57:23.379Z,3.97
2018-05-26T10:59:51.660Z,3.83
2018-05-26T11:02:19.152Z,4.03
2018-05-26T11:04:46.669Z,3.90
2018-05-26T11:07:14.927Z,3.67
2018-05-26T11:09:42.423Z,3.70
2018-05-26T11:12:09.936Z,4.10
2018-05-26T11:14:37.462Z,4.00
2018-05-26T11:17:04.984Z,3.80
2018-05-26T11:19:33.236Z,3.70
2018-05-26T11:22:00.756Z,3.60
2018-05-26T11:24:28.332Z,3.77
2018-05-26T11:26:56.540Z,3.77
2018-05-26T11:29:24.806Z,3.90
2018-05-26T11:31:53.077Z,3.50
2018-05-26T11:34:20.592Z,4.10
2018-05-26T11:36:48.080Z,3.43
2018-05-26T11:39:16.364Z,3.40
2018-05-26T11:41:43.857Z,3.30
2018-05-26T11:44:12.137Z,3.30
2018-05-26T11:46:39.632Z,3.40
2018-05-26T11:49:07.148Z,3.07
2018-05-26T11:51:35.408Z,2.90
2018-05-26T11:54:03.667Z,2.90
2018-05-26T11:56:31.192Z,3.10
2018-05-26T11:58:58.688Z,3.10
2018-05-26T12:01:26.199Z,3.27
2018-05-26T12:03:53.692Z,2.67
2018-05-26T12:06:21.221Z,2.40
2018-05-26T12:08:48.712Z,2.97
2018-05-26T12:11:16.360Z,7.10
2018-05-26T12:13:43.860Z,3.20
2018-05-26T12:16:12.119Z,3.40
2018-05-26T12:18:39.640Z,2.17
2018-05-26T12:21:07.133Z,3.03
2018-05-26T12:23:34.652Z,2.23
2018-05-26T12:26:02.149Z,2.03
2018-05-26T12:28:29.639Z,2.20
2018-05-26T12:30:57.926Z,2.20
2018-05-26T12:33:25.420Z,2.00
2018-05-26T12:35:52.936Z,2.20
2018-05-26T12:38:21.192Z,2.63
2018-05-26T12:40:48.684Z,2.00
2018-05-26T12:43:16.196Z,2.03
2018-05-26T12:45:43.688Z,2.00
2018-05-26T12:48:11.212Z,2.10
2018-05-26T12:50:38.703Z,1.90
2018-05-26T12:53:06.959Z,1.92
2018-05-26T12:55:34.472Z,2.20
2018-05-26T12:58:01.965Z,2.07
2018-05-26T13:00:29.480Z,2.08
2018-05-26T13:02:56.976Z,2.00
2018-05-26T13:05:24.467Z,1.50
2018-05-26T13:07:52.748Z,1.77
2018-05-26T13:10:21.017Z,1.80
2018-05-26T13:12:49.296Z,1.60
2018-05-26T13:15:17.563Z,1.58
2018-05-26T13:17:45.856Z,1.90
2018-05-26T13:20:13.356Z,2.00
2018-05-26T13:22:40.852Z,1.90
2018-05-26T13:25:09.141Z,2.20
2018-05-26T13:27:37.399Z,1.80
2018-05-26T13:30:04.918Z,2.33
2018-05-26T13:32:32.412Z,2.17
2018-05-26T13:34:59.929Z,2.20
2018-05-26T13:37:27.419Z,2.00
2018-05-26T13:39:54.913Z,1.73
2018-05-26T13:42:23.192Z,2.30
2018-05-26T13:44:51.452Z,1.90
2018-05-26T13:47:19.736Z,1.83
2018-05-26T13:49:47.996Z,2.50
2018-05-26T13:52:15.512Z,2.50
2018-05-26T13:54:43.027Z,2.40
2018-05-26T13:57:11.284Z,2.00
2018-05-26T13:59:38.806Z,2.57
2018-05-26T14:02:06.304Z,2.43
2018-05-26T14:04:33.820Z,3.07
2018-05-26T14:07:01.313Z,2.90
2018-05-26T14:09:28.828Z,2.70
2018-05-26T14:11:56.319Z,2.60
2018-05-26T14:14:23.832Z,3.10
2018-05-26T14:16:51.340Z,2.87
2018-05-26T14:19:18.832Z,2.93
2018-05-26T14:21:47.117Z,2.73
2018-05-26T14:24:15.376Z,2.90
2018-05-26T14:26:43.656Z,2.87
2018-05-26T14:29:11.912Z,3.40
2018-05-26T14:31:39.428Z,3.10
2018-05-26T14:34:06.921Z,3.30
2018-05-26T14:36:35.209Z,3.10
2018-05-26T14:39:02.704Z,3.03
2018-05-26T14:41:30.199Z,3.20
2018-05-26T14:43:57.718Z,3.37
2018-05-26T14:46:25.976Z,3.30
2018-05-26T14:48:54.255Z,3.00
2018-05-26T14:51:22.511Z,3.37
2018-05-26T14:53:50.024Z,3.17
2018-05-26T14:56:17.516Z,4.00
2018-05-26T14:58:45.037Z,3.83
2018-05-26T15:01:12.533Z,3.43
2018-05-26T15:03:40.027Z,3.73
2018-05-26T15:06:08.304Z,3.30
2018-05-26T15:08:36.564Z,3.03
2018-05-26T15:11:04.080Z,3.43
2018-05-26T15:13:31.571Z,4.27
2018-05-26T15:15:59.084Z,3.00
2018-05-26T15:18:26.576Z,3.70
2018-05-26T15:20:54.095Z,3.80
2018-05-26T15:23:21.592Z,3.70
2018-05-26T15:25:49.111Z,3.83
2018-05-26T15:28:16.612Z,7.20
2018-05-26T15:30:44.104Z,4.30
2018-05-26T15:33:12.384Z,4.23
2018-05-26T15:35:40.641Z,3.53
2018-05-26T15:38:08.156Z,4.63
2018-05-26T15:40:35.652Z,4.10
2018-05-26T15:43:03.166Z,4.50
2018-05-26T15:45:30.660Z,8.00
2018-05-26T15:47:58.177Z,4.00
2018-05-26T15:50:25.672Z,3.53
2018-05-26T15:52:53.167Z,8.10
2018-05-26T15:55:21.448Z,3.70
2018-05-26T15:57:49.705Z,3.60
2018-05-26T16:00:17.992Z,7.20
2018-05-26T16:02:46.252Z,4.53
2018-05-26T16:05:13.769Z,4.90
2018-05-26T16:07:41.259Z,4.87
2018-05-26T16:10:08.780Z,4.03
2018-05-26T16:12:36.273Z,3.90
2018-05-26T16:15:03.789Z,4.47
2018-05-26T16:17:31.285Z,3.67
2018-05-26T16:19:58.777Z,4.17
2018-05-26T16:22:27.056Z,4.00
2018-05-26T16:24:55.317Z,4.20
2018-05-26T16:27:22.836Z,3.97
2018-05-26T16:29:50.335Z,4.53
2018-05-26T16:32:17.852Z,4.60
2018-05-26T16:34:45.344Z,5.00
2018-05-26T16:37:12.862Z,4.47
2018-05-26T16:39:40.356Z,3.50
2018-05-26T16:42:07.848Z,4.30
2018-05-26T16:44:36.128Z,4.00
2018-05-26T16:47:04.386Z,4.20
2018-05-26T16:49:31.909Z,3.80
2018-05-26T16:51:59.404Z,5.00
2018-05-26T16:54:27.687Z,4.13
2018-05-26T16:56:55.951Z,4.00
2018-05-26T16:59:23.464Z,3.80
2018-05-26T17:01:50.956Z,4.53
2018-05-26T17:04:18.472Z,3.77
2018-05-26T17:06:45.967Z,4.03
2018-05-26T17:09:14.224Z,4.10
2018-05-26T17:11:41.736Z,4.40
2018-05-26T17:14:09.993Z,4.20
2018-05-26T17:16:37.508Z,4.20
2018-05-26T17:19:05.000Z,4.00
2018-05-26T17:21:32.519Z,4.57
2018-05-26T17:24:00.012Z,4.10
2018-05-26T17:26:27.529Z,4.37
2018-05-26T17:28:55.025Z,4.30
2018-05-26T17:31:22.521Z,4.80
2018-05-26T17:33:50.799Z,4.40
2018-05-26T17:36:19.061Z,4.20
2018-05-26T17:38:46.576Z,4.50
2018-05-26T17:41:14.068Z,4.20
2018-05-26T17:43:41.579Z,4.43
2018-05-26T17:46:09.068Z,4.40
2018-05-26T17:48:36.584Z,4.63
2018-05-26T17:51:04.092Z,5.00
2018-05-26T17:53:31.585Z,5.00
2018-05-26T17:55:59.872Z,4.40
2018-05-26T17:58:27.364Z,4.80
2018-05-26T18:00:54.880Z,4.30
2018-05-26T18:03:23.141Z,4.73
2018-05-26T18:05:50.656Z,4.60
2018-05-26T18:08:18.151Z,5.03
2018-05-26T18:10:45.663Z,5.13
2018-05-26T18:13:13.155Z,4.77
2018-05-26T18:15:40.669Z,5.30
2018-05-26T18:18:08.164Z,8.10
2018-05-26T18:20:35.660Z,45.97
2018-05-26T18:23:03.947Z,7.77
2018-05-26T18:25:32.204Z,5.30
2018-05-26T18:28:00.488Z,4.90
2018-05-26T18:30:28.779Z,4.87
2018-05-26T18:32:56.296Z,5.70
2018-05-26T18:35:23.816Z,4.70
2018-05-26T18:37:51.335Z,4.30
2018-05-26T18:40:19.600Z,4.47
2018-05-26T18:42:47.092Z,6.70
2018-05-26T18:45:14.607Z,5.27
2018-05-26T18:47:42.097Z,4.80
2018-05-26T18:50:10.388Z,4.20
2018-05-26T18:52:37.883Z,5.10
2018-05-26T18:55:05.407Z,43.00
2018-05-26T18:57:32.912Z,7.40
2018-05-26T19:00:00.424Z,4.60
2018-05-26T19:02:27.920Z,5.90
2018-05-26T19:04:55.412Z,5.47
2018-05-26T19:07:23.691Z,5.13
2018-05-26T19:09:51.952Z,5.50
2018-05-26T19:12:19.469Z,5.17
2018-05-26T19:14:46.964Z,5.77
2018-05-26T19:17:14.480Z,5.10
2018-05-26T19:19:41.972Z,6.60
2018-05-26T19:22:09.488Z,6.00
2018-05-26T19:24:36.989Z,5.90
2018-05-26T19:27:04.504Z,5.30
2018-05-26T19:29:32.000Z,6.53
2018-05-26T19:31:59.497Z,6.57
2018-05-26T19:34:27.788Z,6.60
2018-05-26T19:36:56.095Z,7.83
2018-05-26T19:39:23.580Z,7.03
2018-05-26T19:41:51.072Z,6.60
2018-05-26T19:44:19.357Z,6.37
2018-05-26T19:46:46.855Z,6.00
2018-05-26T19:49:14.371Z,5.90
2018-05-26T19:51:42.632Z,6.40
2018-05-26T19:54:10.902Z,6.67
2018-05-26T19:56:38.416Z,6.37
2018-05-26T19:59:05.912Z,5.70
2018-05-26T20:01:33.432Z,6.23
2018-05-26T20:04:00.924Z,6.27
2018-05-26T20:06:28.440Z,6.00
2018-05-26T20:08:55.943Z,41.63
2018-05-26T20:11:23.471Z,58.83
2018-05-26T20:13:51.021Z,7.30
2018-05-26T20:16:18.518Z,5.80
2018-05-26T20:18:46.039Z,6.53
2018-05-26T20:21:13.535Z,6.63
2018-05-26T20:23:41.063Z,10.00
2018-05-26T20:26:08.566Z,13.63
2018-05-26T20:28:36.090Z,9.50
2018-05-26T20:31:03.588Z,7.93
2018-05-26T20:33:31.873Z,7.67
2018-05-26T20:36:00.133Z,7.00
2018-05-26T20:38:27.647Z,6.77
2018-05-26T20:40:55.141Z,6.37
2018-05-26T20:43:22.633Z,6.00
2018-05-26T20:45:50.916Z,7.00
2018-05-26T20:48:18.413Z,10.23
2018-05-26T20:50:45.944Z,7.67
2018-05-26T20:53:13.443Z,6.70
2018-05-26T20:55:40.959Z,7.47
2018-05-26T20:58:08.452Z,7.23
2018-05-26T21:00:35.944Z,6.97
2018-05-26T21:03:04.226Z,6.63
2018-05-26T21:05:32.488Z,7.20
2018-05-26T21:08:00.005Z,7.27
2018-05-26T21:10:27.495Z,6.87
2018-05-26T21:12:55.016Z,7.27
2018-05-26T21:15:22.512Z,6.73
2018-05-26T21:17:50.008Z,6.93
2018-05-26T21:20:17.528Z,7.00
2018-05-26T21:22:45.027Z,7.27
2018-05-26T21:25:12.549Z,7.67
2018-05-26T21:27:40.073Z,7.80
2018-05-26T21:30:07.576Z,8.00
2018-05-26T21:32:35.065Z,8.80
2018-05-26T21:35:02.588Z,8.73
2018-05-26T21:37:30.080Z,9.03
2018-05-26T21:39:57.596Z,8.07
2018-05-26T21:42:25.088Z,8.93
2018-05-26T21:44:53.352Z,9.47
2018-05-26T21:47:21.636Z,9.30
2018-05-26T21:49:49.904Z,10.20
2018-05-26T21:52:18.196Z,10.40
2018-05-26T21:54:46.460Z,10.50
2018-05-26T21:57:14.744Z,9.90
2018-05-26T21:59:43.004Z,9.80
2018-05-26T22:02:10.528Z,9.43
2018-05-26T22:04:38.020Z,8.70
2018-05-26T22:07:05.544Z,11.33
2018-05-26T22:09:33.041Z,9.80
2018-05-26T22:12:00.532Z,9.20
2018-05-26T22:14:28.052Z,9.13
2018-05-26T22:16:55.544Z,9.37
2018-05-26T22:19:23.055Z,8.70
2018-05-26T22:21:50.548Z,9.23
2018-05-26T22:24:18.831Z,8.90
2018-05-26T22:26:46.329Z,8.73
2018-05-26T22:29:13.872Z,9.10
2018-05-26T22:31:41.360Z,8.83
2018-05-26T22:34:08.876Z,10.00
2018-05-26T22:36:36.397Z,8.93
2018-05-26T22:39:03.888Z,9.00
2018-05-26T22:41:31.408Z,9.33
2018-05-26T22:43:58.905Z,9.20
2018-05-26T22:46:26.420Z,8.63
2018-05-26T22:48:53.911Z,8.67
2018-05-26T22:51:22.172Z,9.77
2018-05-26T22:53:50.452Z,8.60
2018-05-26T22:56:18.716Z,9.27
2018-05-26T22:58:46.240Z,9.60
2018-05-26T23:01:13.741Z,9.50
2018-05-26T23:03:42.029Z,9.97
2018-05-26T23:06:10.297Z,10.00
2018-05-26T23:08:38.556Z,9.60
2018-05-26T23:11:06.080Z,11.03
2018-05-26T23:13:33.572Z,9.70
2018-05-26T23:16:01.092Z,9.97
2018-05-26T23:18:28.588Z,9.70
2018-05-26T23:20:56.116Z,10.03
2018-05-26T23:23:23.611Z,10.70
2018-05-26T23:25:51.109Z,10.60
2018-05-26T23:28:18.632Z,10.50
2018-05-26T23:30:46.137Z,10.40
2018-05-26T23:33:13.657Z,9.77
2018-05-26T23:35:41.157Z,10.07
2018-05-26T23:38:08.680Z,9.60
2018-05-26T23:40:36.945Z,9.83
2018-05-26T23:43:04.468Z,9.63
2018-05-26T23:45:31.968Z,9.30
2018-05-26T23:48:00.233Z,10.37
2018-05-26T23:50:27.752Z,9.80
2018-05-26T23:52:55.272Z,11.23
2018-05-26T23:55:23.532Z,10.20
2018-05-26T23:57:51.033Z,11.10
